createdAt,value
2019-01-23T00:00:34.786Z,6.57
2019-01-23T00:03:03.134Z,7.13
2019-01-23T00:05:31.409Z,4.37
2019-01-23T00:07:59.788Z,9.47
2019-01-23T00:10:28.124Z,8.33
2019-01-23T00:12:56.394Z,8.77
2019-01-23T00:15:24.710Z,12.33
2019-01-23T00:17:54.856Z,5.27
2019-01-23T00:20:23.145Z,5.87
2019-01-23T00:22:51.446Z,14.23
2019-01-23T00:25:19.792Z,7.27
2019-01-23T00:27:48.070Z,11.87
2019-01-23T00:30:16.376Z,11.37
2019-01-23T00:32:44.660Z,10.23
2019-01-23T00:35:12.935Z,12.20
2019-01-23T00:37:41.308Z,9.40
2019-01-23T00:40:15.545Z,8.30
2019-01-23T00:42:43.821Z,9.40
2019-01-23T00:45:14.634Z,7.67
2019-01-23T00:47:42.908Z,8.40
2019-01-23T00:50:13.020Z,8.03
2019-01-23T00:52:41.326Z,9.47
2019-01-23T00:55:12.336Z,11.03
2019-01-23T00:57:40.611Z,6.20
2019-01-23T01:00:12.251Z,14.13
2019-01-23T01:02:40.593Z,13.53
2019-01-23T01:05:08.950Z,8.53
2019-01-23T01:07:37.233Z,11.03
2019-01-23T01:10:08.768Z,14.70
2019-01-23T01:12:37.043Z,13.93
2019-01-23T01:15:13.083Z,9.80
2019-01-23T01:17:37.395Z,12.40
2019-01-23T01:20:09.166Z,12.97
2019-01-23T01:22:37.468Z,8.20
2019-01-23T01:25:12.092Z,10.87
2019-01-23T01:27:40.368Z,10.13
2019-01-23T01:30:17.275Z,10.63
2019-01-23T01:32:45.564Z,10.70
2019-01-23T01:35:13.831Z,11.17
2019-01-23T01:37:42.136Z,6.53
2019-01-23T01:40:13.111Z,10.90
2019-01-23T01:42:41.383Z,8.37
2019-01-23T01:45:10.634Z,7.67
2019-01-23T01:47:38.912Z,6.87
2019-01-23T01:50:17.754Z,6.03
2019-01-23T01:52:46.096Z,12.45
2019-01-23T01:55:14.442Z,9.63
2019-01-23T01:57:42.754Z,8.83
2019-01-23T02:00:22.223Z,7.80
2019-01-23T02:02:50.529Z,6.83
2019-01-23T02:05:18.877Z,8.40
2019-01-23T02:07:47.146Z,6.50
2019-01-23T02:10:19.649Z,9.57
2019-01-23T02:12:48.261Z,9.83
2019-01-23T02:15:17.459Z,7.50
2019-01-23T02:17:45.837Z,8.67
2019-01-23T02:20:17.151Z,6.17
2019-01-23T02:22:45.417Z,5.73
2019-01-23T02:25:13.957Z,8.20
2019-01-23T02:27:43.192Z,7.60
2019-01-23T02:30:14.934Z,7.17
2019-01-23T02:32:43.245Z,8.23
2019-01-23T02:35:36.165Z,6.97
2019-01-23T02:38:04.468Z,6.10
2019-01-23T02:40:32.806Z,4.47
2019-01-23T02:43:01.920Z,5.47
2019-01-23T02:45:30.227Z,5.83
2019-01-23T02:47:58.503Z,9.23
2019-01-23T02:50:26.851Z,24.43
2019-01-23T02:52:55.149Z,22.77
2019-01-23T02:55:23.424Z,26.73
2019-01-23T02:57:51.706Z,22.50
2019-01-23T03:00:20.091Z,20.57
2019-01-23T03:02:48.569Z,11.80
2019-01-23T03:05:18.288Z,13.20
2019-01-23T03:07:46.588Z,11.23
2019-01-23T03:10:16.977Z,5.30
2019-01-23T03:12:45.240Z,8.13
2019-01-23T03:15:15.206Z,8.17
2019-01-23T03:17:43.485Z,8.80
2019-01-23T03:20:13.691Z,7.10
2019-01-23T03:22:42.002Z,10.27
2019-01-23T03:25:11.520Z,12.47
2019-01-23T03:27:39.790Z,8.23
2019-01-23T03:30:11.361Z,7.57
2019-01-23T03:32:39.620Z,9.30
2019-01-23T03:35:09.426Z,8.03
2019-01-23T03:37:37.737Z,7.27
2019-01-23T03:40:11.248Z,8.13
2019-01-23T03:42:39.516Z,9.20
2019-01-23T03:45:10.620Z,8.90
2019-01-23T03:47:38.970Z,15.67
2019-01-23T03:50:15.326Z,11.67
2019-01-23T03:52:43.687Z,12.93
2019-01-23T03:55:13.298Z,16.63
2019-01-23T03:57:41.598Z,7.33
2019-01-23T04:00:20.421Z,10.73
2019-01-23T04:02:49.564Z,11.60
2019-01-23T04:05:17.839Z,8.37
2019-01-23T04:07:46.112Z,10.80
2019-01-23T04:10:15.662Z,10.60
2019-01-23T04:12:44.011Z,12.33
2019-01-23T04:15:16.836Z,10.03
2019-01-23T04:17:45.292Z,10.83
2019-01-23T04:20:19.161Z,9.10
2019-01-23T04:22:47.441Z,10.97
2019-01-23T04:25:15.837Z,8.47
2019-01-23T04:27:44.186Z,9.40
2019-01-23T04:30:20.667Z,12.90
2019-01-23T04:32:48.945Z,8.30
2019-01-23T04:35:17.211Z,17.70
2019-01-23T04:37:45.664Z,10.13
2019-01-23T04:40:14.491Z,11.53
2019-01-23T04:42:42.833Z,7.30
2019-01-23T04:45:13.192Z,10.70
2019-01-23T04:47:42.335Z,9.13
2019-01-23T04:50:12.371Z,11.97
2019-01-23T04:52:57.086Z,12.10
2019-01-23T04:55:25.429Z,13.53
2019-01-23T04:57:53.705Z,16.70
2019-01-23T05:00:23.694Z,11.27
2019-01-23T05:02:51.970Z,14.27
2019-01-23T05:05:20.319Z,15.63
2019-01-23T05:07:48.642Z,13.07
2019-01-23T05:10:16.911Z,13.43
2019-01-23T05:12:45.190Z,16.37
2019-01-23T05:15:13.637Z,10.47
2019-01-23T05:17:41.913Z,13.67
2019-01-23T05:20:12.633Z,10.73
2019-01-23T05:22:41.017Z,11.63
2019-01-23T05:25:09.292Z,13.07
2019-01-23T05:27:38.318Z,12.53
2019-01-23T05:30:15.555Z,13.97
2019-01-23T05:32:43.833Z,12.67
2019-01-23T05:35:12.109Z,15.57
2019-01-23T05:37:40.429Z,14.90
2019-01-23T05:40:09.352Z,15.90
2019-01-23T05:42:37.632Z,24.53
2019-01-23T05:45:08.382Z,15.00
2019-01-23T05:47:36.656Z,13.63
2019-01-23T05:50:08.261Z,13.33
2019-01-23T05:52:36.575Z,15.47
2019-01-23T05:55:06.989Z,16.90
2019-01-23T05:57:35.276Z,14.83
2019-01-23T06:00:05.097Z,18.57
2019-01-23T06:02:33.373Z,14.47
2019-01-23T06:05:01.800Z,17.63
2019-01-23T06:07:30.201Z,17.13
2019-01-23T06:09:58.493Z,14.37
2019-01-23T06:12:26.770Z,17.47
2019-01-23T06:14:55.147Z,20.17
2019-01-23T06:17:23.426Z,21.13
2019-01-23T06:19:51.705Z,20.10
2019-01-23T06:22:20.018Z,18.03
2019-01-23T06:24:48.287Z,21.70
2019-01-23T06:27:16.633Z,17.93
2019-01-23T06:29:44.937Z,16.73
2019-01-23T06:32:13.219Z,16.63
2019-01-23T06:34:41.491Z,14.97
2019-01-23T06:37:09.815Z,14.80
2019-01-23T06:39:38.167Z,21.17
2019-01-23T06:42:06.457Z,20.57
2019-01-23T06:44:34.757Z,20.23
2019-01-23T06:47:03.037Z,16.33
2019-01-23T06:49:31.314Z,14.13
2019-01-23T06:52:00.462Z,18.23
2019-01-23T06:54:28.743Z,16.43
2019-01-23T06:56:57.029Z,19.10
2019-01-23T06:59:25.331Z,22.50
2019-01-23T07:01:53.677Z,15.77
2019-01-23T07:04:21.952Z,20.80
2019-01-23T07:06:50.280Z,18.90
2019-01-23T07:09:18.546Z,23.67
2019-01-23T07:11:46.820Z,18.00
2019-01-23T07:14:15.198Z,21.63
2019-01-23T07:16:43.478Z,20.10
2019-01-23T07:19:11.743Z,16.73
2019-01-23T07:21:40.060Z,18.53
2019-01-23T07:24:08.336Z,20.37
2019-01-23T07:26:36.613Z,16.10
2019-01-23T07:29:04.991Z,48.27
2019-01-23T07:31:33.268Z,22.03
2019-01-23T07:34:01.546Z,31.00
2019-01-23T07:36:29.880Z,18.77
2019-01-23T07:38:58.224Z,26.60
2019-01-23T07:41:26.508Z,25.83
2019-01-23T07:43:54.818Z,25.50
2019-01-23T07:46:23.099Z,23.63
2019-01-23T07:48:51.398Z,30.37
2019-01-23T07:51:19.726Z,21.73
2019-01-23T07:53:48.849Z,22.17
2019-01-23T07:56:17.199Z,25.00
2019-01-23T07:58:45.513Z,21.10
2019-01-23T08:01:13.805Z,27.57
2019-01-23T08:03:42.087Z,29.50
2019-01-23T08:06:10.396Z,29.70
2019-01-23T08:08:38.675Z,23.40
2019-01-23T08:11:06.950Z,24.43
2019-01-23T08:13:35.266Z,27.07
2019-01-23T08:16:03.621Z,35.00
2019-01-23T08:18:31.908Z,24.40
2019-01-23T08:21:00.234Z,34.50
2019-01-23T08:23:28.514Z,42.47
2019-01-23T08:25:56.866Z,26.37
2019-01-23T08:28:25.175Z,32.33
2019-01-23T08:30:53.521Z,26.23
2019-01-23T08:33:21.797Z,36.10
2019-01-23T08:35:50.110Z,28.17
2019-01-23T08:38:18.397Z,29.20
2019-01-23T08:40:46.673Z,26.43
2019-01-23T08:43:14.989Z,30.50
2019-01-23T08:45:43.277Z,27.73
2019-01-23T08:48:11.636Z,22.70
2019-01-23T08:50:40.789Z,28.90
2019-01-23T08:53:09.072Z,24.77
2019-01-23T08:55:38.210Z,27.10
2019-01-23T08:58:06.708Z,26.30
2019-01-23T09:00:34.997Z,30.57
2019-01-23T09:03:03.267Z,28.50
2019-01-23T09:05:31.612Z,27.00
2019-01-23T09:07:59.847Z,24.87
2019-01-23T09:10:29.365Z,21.47
2019-01-23T09:12:57.687Z,38.27
2019-01-23T09:15:25.971Z,29.00
2019-01-23T09:17:54.251Z,31.83
2019-01-23T09:20:23.038Z,27.60
2019-01-23T09:22:51.316Z,33.90
2019-01-23T09:25:24.659Z,33.27
2019-01-23T09:27:52.978Z,34.43
2019-01-23T09:30:30.073Z,29.00
2019-01-23T09:33:19.885Z,46.03
2019-01-23T09:36:12.402Z,26.67
2019-01-23T09:39:01.652Z,29.73
2019-01-23T09:41:49.564Z,25.10
2019-01-23T09:44:49.603Z,24.73
2019-01-23T09:47:36.178Z,19.47
2019-01-23T09:50:19.393Z,15.03
2019-01-23T09:53:05.872Z,16.73
2019-01-23T09:55:34.258Z,9.73
2019-01-23T09:58:03.392Z,15.30
2019-01-23T10:00:32.104Z,14.77
2019-01-23T10:03:00.428Z,14.37
2019-01-23T10:05:28.916Z,15.77
2019-01-23T10:07:57.184Z,10.17
2019-01-23T10:10:25.568Z,13.80
2019-01-23T10:12:53.839Z,14.67
2019-01-23T10:15:27.997Z,13.27
2019-01-23T10:17:56.321Z,10.50
2019-01-23T10:20:24.666Z,14.07
2019-01-23T10:22:53.013Z,8.37
2019-01-23T10:25:21.456Z,9.77
2019-01-23T10:27:49.796Z,16.23
2019-01-23T10:30:18.076Z,9.57
2019-01-23T10:32:46.395Z,11.13
2019-01-23T10:35:17.731Z,8.10
2019-01-23T10:37:46.070Z,10.10
2019-01-23T10:40:16.530Z,12.20
2019-01-23T10:42:44.863Z,8.47
2019-01-23T10:45:16.068Z,8.70
2019-01-23T10:47:44.697Z,11.67
2019-01-23T10:50:16.828Z,9.10
2019-01-23T10:52:45.177Z,10.67
2019-01-23T10:55:13.628Z,11.03
2019-01-23T10:57:41.963Z,10.43
2019-01-23T11:00:16.899Z,15.13
2019-01-23T11:02:45.276Z,13.03
2019-01-23T11:05:16.623Z,12.30
2019-01-23T11:07:44.899Z,12.13
2019-01-23T11:10:16.142Z,12.70
2019-01-23T11:12:44.623Z,11.47
2019-01-23T11:15:13.308Z,13.90
2019-01-23T11:17:41.818Z,23.63
2019-01-23T11:20:13.365Z,16.20
2019-01-23T11:22:41.711Z,16.63
2019-01-23T11:25:12.055Z,10.63
2019-01-23T11:27:40.537Z,7.33
2019-01-23T11:30:14.812Z,8.67
2019-01-23T11:32:43.390Z,9.80
2019-01-23T11:35:11.739Z,9.33
2019-01-23T11:37:40.086Z,10.50
2019-01-23T11:40:20.640Z,10.40
2019-01-23T11:42:48.927Z,9.77
2019-01-23T11:45:17.396Z,11.77
2019-01-23T11:47:45.837Z,10.63
2019-01-23T11:50:21.770Z,10.57
2019-01-23T11:52:47.621Z,10.83
2019-01-23T11:55:16.126Z,10.17
2019-01-23T11:57:44.465Z,6.97
2019-01-23T12:00:22.923Z,14.13
2019-01-23T12:02:51.193Z,10.90
2019-01-23T12:05:20.978Z,7.73
2019-01-23T12:07:49.348Z,7.60
2019-01-23T12:10:20.297Z,10.60
2019-01-23T12:12:48.566Z,14.07
2019-01-23T12:15:18.797Z,13.50
2019-01-23T12:17:47.075Z,12.03
2019-01-23T12:20:15.560Z,10.07
2019-01-23T12:22:43.880Z,11.23
2019-01-23T12:25:12.899Z,14.07
2019-01-23T12:27:41.386Z,12.03
2019-01-23T12:30:15.527Z,11.30
2019-01-23T12:32:44.004Z,15.63
2019-01-23T12:35:12.271Z,13.43
2019-01-23T12:37:40.797Z,13.03
2019-01-23T12:40:14.462Z,13.60
2019-01-23T12:42:42.813Z,12.73
2019-01-23T12:45:14.638Z,13.13
2019-01-23T12:47:42.915Z,11.40
2019-01-23T12:50:14.207Z,10.67
2019-01-23T12:52:42.547Z,16.73
2019-01-23T12:55:11.022Z,13.07
2019-01-23T12:57:39.304Z,16.93
2019-01-23T13:00:13.731Z,13.20
2019-01-23T13:02:42.208Z,10.33
2019-01-23T13:05:12.685Z,14.17
2019-01-23T13:07:41.217Z,61.10
2019-01-23T13:10:12.759Z,26.03
2019-01-23T13:12:41.258Z,16.30
2019-01-23T13:15:12.982Z,16.33
2019-01-23T13:17:41.474Z,16.23
2019-01-23T13:20:12.768Z,23.97
2019-01-23T13:22:41.296Z,44.93
2019-01-23T13:25:17.720Z,41.73
2019-01-23T13:27:46.243Z,22.00
2019-01-23T13:30:17.332Z,17.17
2019-01-23T13:32:45.823Z,18.73
2019-01-23T13:35:23.388Z,22.33
2019-01-23T13:37:51.870Z,14.20
2019-01-23T13:40:26.076Z,18.67
2019-01-23T13:42:54.603Z,13.27
2019-01-23T13:45:23.079Z,16.23
2019-01-23T13:47:51.559Z,16.17
2019-01-23T13:50:20.073Z,15.30
2019-01-23T13:52:48.569Z,21.73
2019-01-23T13:55:21.956Z,21.27
2019-01-23T13:57:50.484Z,14.00
2019-01-23T14:00:38.225Z,13.97
2019-01-23T14:03:07.049Z,15.50
2019-01-23T14:05:35.540Z,19.63
2019-01-23T14:08:04.258Z,21.23
2019-01-23T14:10:32.753Z,19.57
2019-01-23T14:13:01.240Z,12.23
2019-01-23T14:15:37.294Z,10.67
2019-01-23T14:18:06.174Z,10.13
2019-01-23T14:20:34.762Z,9.23
2019-01-23T14:23:03.279Z,15.73
2019-01-23T14:25:31.771Z,13.63
2019-01-23T14:28:00.261Z,12.67
2019-01-23T14:30:37.132Z,14.40
2019-01-23T14:33:05.613Z,10.70
2019-01-23T14:35:35.102Z,13.00
2019-01-23T14:38:03.606Z,13.27
2019-01-23T14:40:32.091Z,16.23
2019-01-23T14:43:00.582Z,26.93
2019-01-23T14:45:29.118Z,18.23
2019-01-23T14:47:57.597Z,10.87
2019-01-23T14:50:26.085Z,15.97
2019-01-23T14:52:54.605Z,18.00
2019-01-23T14:55:23.085Z,13.37
2019-01-23T14:57:51.572Z,15.70
2019-01-23T15:00:28.158Z,16.37
2019-01-23T15:02:56.644Z,14.23
2019-01-23T15:05:25.968Z,12.67
2019-01-23T15:07:54.480Z,8.97
2019-01-23T15:10:25.418Z,12.80
2019-01-23T15:12:53.905Z,10.23
2019-01-23T15:15:22.430Z,11.97
2019-01-23T15:17:51.010Z,13.80
2019-01-23T15:20:25.104Z,12.03
2019-01-23T15:22:53.624Z,13.57
2019-01-23T15:25:22.107Z,16.10
2019-01-23T15:27:50.594Z,13.17
2019-01-23T15:30:21.111Z,12.20
2019-01-23T15:32:49.603Z,14.63
2019-01-23T15:35:18.917Z,17.07
2019-01-23T15:37:47.429Z,34.63
2019-01-23T15:40:18.677Z,39.23
2019-01-23T15:42:47.166Z,33.10
2019-01-23T15:45:15.690Z,29.10
2019-01-23T15:47:44.185Z,23.90
2019-01-23T15:50:18.633Z,16.43
2019-01-23T15:52:47.159Z,19.40
2019-01-23T15:55:18.306Z,18.33
2019-01-23T15:57:46.790Z,17.50
2019-01-23T16:00:18.425Z,15.57
2019-01-23T16:02:48.538Z,19.70
2019-01-23T16:05:17.070Z,24.03
2019-01-23T16:07:46.469Z,19.50
2019-01-23T16:10:22.157Z,26.67
2019-01-23T16:12:50.664Z,17.97
2019-01-23T16:15:21.253Z,18.97
2019-01-23T16:17:49.728Z,15.20
2019-01-23T16:20:18.245Z,17.53
2019-01-23T16:22:46.826Z,15.73
2019-01-23T16:25:16.514Z,13.93
2019-01-23T16:27:45.641Z,17.07
2019-01-23T16:30:19.948Z,27.40
2019-01-23T16:32:48.440Z,15.27
2019-01-23T16:35:16.970Z,29.50
2019-01-23T16:37:45.452Z,15.37
2019-01-23T16:40:13.942Z,12.83
2019-01-23T16:42:42.462Z,13.30
2019-01-23T16:45:16.467Z,14.80
2019-01-23T16:47:45.751Z,12.13
2019-01-23T16:50:17.000Z,10.07
2019-01-23T16:52:45.476Z,12.90
2019-01-23T16:55:13.959Z,10.10
2019-01-23T16:57:42.476Z,39.73
2019-01-23T17:00:13.771Z,20.27
2019-01-23T17:02:42.256Z,23.50
2019-01-23T17:05:19.314Z,30.80
2019-01-23T17:07:48.298Z,21.00
2019-01-23T17:10:19.242Z,19.10
2019-01-23T17:12:47.767Z,13.33
2019-01-23T17:15:16.309Z,27.90
2019-01-23T17:17:44.749Z,20.03
2019-01-23T17:20:21.958Z,22.10
2019-01-23T17:22:50.461Z,27.67
2019-01-23T17:25:18.958Z,18.03
2019-01-23T17:27:47.464Z,16.33
2019-01-23T17:30:17.565Z,10.00
2019-01-23T17:32:46.052Z,9.57
2019-01-23T17:35:17.656Z,9.17
2019-01-23T17:37:46.137Z,11.67
2019-01-23T17:40:17.196Z,11.27
2019-01-23T17:42:45.717Z,16.23
2019-01-23T17:45:23.170Z,25.17
2019-01-23T17:47:51.700Z,10.60
2019-01-23T17:50:21.882Z,12.67
2019-01-23T17:52:50.678Z,14.70
2019-01-23T17:55:30.340Z,14.17
2019-01-23T17:57:58.931Z,15.57
2019-01-23T18:00:31.339Z,14.07
2019-01-23T18:02:59.866Z,14.60
2019-01-23T18:05:29.913Z,13.27
2019-01-23T18:07:58.402Z,11.93
2019-01-23T18:10:27.831Z,11.37
2019-01-23T18:12:56.325Z,5.73
2019-01-23T18:15:39.092Z,10.03
2019-01-23T18:18:09.490Z,14.13
2019-01-23T18:20:37.983Z,9.97
2019-01-23T18:23:09.232Z,13.90
2019-01-23T18:25:40.583Z,14.00
2019-01-23T18:28:09.069Z,14.80
2019-01-23T18:30:52.477Z,10.97
2019-01-23T18:33:29.884Z,9.37
2019-01-23T18:36:20.770Z,7.67
2019-01-23T18:38:55.192Z,11.27
2019-01-23T18:41:49.312Z,10.17
2019-01-23T18:44:32.918Z,10.40
2019-01-23T18:47:10.374Z,8.83
2019-01-23T18:49:56.598Z,7.97
2019-01-23T18:52:25.130Z,7.83
2019-01-23T18:54:55.195Z,6.07
2019-01-23T18:57:28.943Z,8.60
2019-01-23T18:59:59.336Z,9.93
2019-01-23T19:02:29.260Z,11.17
2019-01-23T19:04:57.739Z,9.17
2019-01-23T19:07:26.890Z,10.60
2019-01-23T19:09:55.338Z,9.20
2019-01-23T19:12:23.842Z,14.13
2019-01-23T19:14:52.367Z,13.47
2019-01-23T19:17:20.858Z,14.20
2019-01-23T19:19:49.348Z,12.23
2019-01-23T19:22:17.883Z,10.97
2019-01-23T19:24:46.387Z,9.17
2019-01-23T19:27:14.876Z,15.03
2019-01-23T19:29:43.416Z,14.50
2019-01-23T19:34:40.413Z,12.30
2019-01-23T19:37:10.519Z,11.33
2019-01-23T19:39:39.015Z,9.50
2019-01-23T19:42:07.503Z,10.60
2019-01-23T19:44:36.043Z,13.40
2019-01-23T19:47:04.537Z,9.97
2019-01-23T19:49:33.050Z,14.93
2019-01-23T19:52:03.191Z,27.60
2019-01-23T19:54:31.678Z,6.90
2019-01-23T19:57:00.173Z,12.30
2019-01-23T19:59:30.292Z,19.03
2019-01-23T20:01:58.778Z,21.57
2019-01-23T20:04:27.278Z,11.53
2019-01-23T20:06:55.802Z,14.80
2019-01-23T20:09:24.298Z,13.10
2019-01-23T20:11:52.803Z,43.23
2019-01-23T20:14:21.470Z,12.23
2019-01-23T20:16:50.109Z,21.70
2019-01-23T20:19:18.572Z,6.00
2019-01-23T20:21:47.113Z,11.27
2019-01-23T20:24:15.616Z,15.23
2019-01-23T20:26:47.184Z,11.67
2019-01-23T20:29:15.715Z,12.43
2019-01-23T20:31:44.215Z,10.83
2019-01-23T20:34:12.707Z,17.27
2019-01-23T20:36:41.232Z,12.07
2019-01-23T20:39:10.521Z,11.13
2019-01-23T20:41:39.012Z,14.97
2019-01-23T20:44:07.547Z,17.03
2019-01-23T20:46:36.035Z,22.17
2019-01-23T20:49:04.523Z,10.97
2019-01-23T20:51:33.072Z,21.70
2019-01-23T20:54:01.564Z,17.73
2019-01-23T20:56:30.051Z,18.40
2019-01-23T20:58:58.592Z,12.00
2019-01-23T21:01:27.084Z,15.33
2019-01-23T21:03:55.564Z,12.27
2019-01-23T21:06:24.084Z,15.13
2019-01-23T21:08:52.557Z,7.17
2019-01-23T21:11:23.822Z,15.90
2019-01-23T21:13:54.526Z,9.00
2019-01-23T21:16:23.008Z,14.30
2019-01-23T21:18:51.496Z,14.83
2019-01-23T21:21:20.024Z,12.47
2019-01-23T21:23:48.504Z,13.30
2019-01-23T21:26:16.990Z,14.03
2019-01-23T21:28:45.541Z,15.33
2019-01-23T21:31:14.023Z,13.90
2019-01-23T21:33:42.511Z,22.80
2019-01-23T21:36:11.044Z,23.13
2019-01-23T21:38:40.680Z,34.67
2019-01-23T21:41:09.163Z,25.53
2019-01-23T21:43:37.688Z,23.33
2019-01-23T21:46:06.167Z,17.67
2019-01-23T21:48:34.665Z,14.30
2019-01-23T21:51:03.198Z,16.93
2019-01-23T21:53:31.695Z,27.20
2019-01-23T21:56:00.191Z,28.10
2019-01-23T21:58:28.588Z,32.57
2019-01-23T22:00:57.077Z,33.27
2019-01-23T22:03:25.569Z,42.13
2019-01-23T22:05:53.893Z,28.53
2019-01-23T22:08:22.177Z,24.57
2019-01-23T22:10:50.663Z,25.90
2019-01-23T22:13:19.051Z,34.37
2019-01-23T22:15:47.545Z,31.17
2019-01-23T22:18:16.043Z,39.63
2019-01-23T22:20:44.588Z,31.73
2019-01-23T22:23:12.939Z,17.07
2019-01-23T22:25:41.223Z,10.97
2019-01-23T22:28:09.541Z,12.77
2019-01-23T22:30:37.893Z,12.67
2019-01-23T22:33:06.170Z,12.07
2019-01-23T22:35:35.388Z,15.43
2019-01-23T22:38:03.666Z,9.10
2019-01-23T22:40:32.016Z,13.00
2019-01-23T22:43:00.327Z,11.37
2019-01-23T22:45:28.606Z,16.80
2019-01-23T22:47:56.898Z,11.43
2019-01-23T22:50:28.576Z,13.10
2019-01-23T22:52:56.834Z,17.90
2019-01-23T22:55:25.110Z,14.40
2019-01-23T22:57:53.672Z,20.80
2019-01-23T23:00:35.594Z,19.27
2019-01-23T23:03:04.013Z,12.53
2019-01-23T23:05:32.355Z,15.43
2019-01-23T23:08:02.693Z,16.87
2019-01-23T23:10:30.998Z,20.97
2019-01-23T23:12:59.282Z,15.37
2019-01-23T23:15:27.631Z,20.43
2019-01-23T23:17:55.953Z,16.87
2019-01-23T23:20:24.234Z,15.43
2019-01-23T23:22:52.588Z,12.93
2019-01-23T23:25:20.896Z,16.53
2019-01-23T23:27:49.172Z,13.07
2019-01-23T23:30:22.659Z,13.53
2019-01-23T23:32:50.965Z,11.90
2019-01-23T23:35:19.257Z,11.83
2019-01-23T23:37:47.550Z,12.00
2019-01-23T23:40:16.111Z,25.27
2019-01-23T23:42:44.391Z,15.03
2019-01-23T23:45:17.071Z,13.73
2019-01-23T23:47:45.380Z,24.20
2019-01-23T23:50:14.998Z,19.80
2019-01-23T23:52:43.272Z,22.07
2019-01-23T23:55:12.844Z,19.60
2019-01-23T23:57:41.118Z,18.93
